createdAt,value
2019-05-02T00:02:23.940Z,94408.64
2019-05-02T00:04:55.894Z,94401.31
2019-05-02T00:07:23.158Z,94404.69
2019-05-02T00:09:52.771Z,94404.41
2019-05-02T00:12:23.149Z,94402.06
2019-05-02T00:14:56.464Z,94404.05
2019-05-02T00:17:27.498Z,94406.92
2019-05-02T00:19:57.108Z,94407.41
2019-05-02T00:22:26.660Z,94403.51
2019-05-02T00:24:56.212Z,94406.28
2019-05-02T00:27:25.977Z,94401.72
2019-05-02T00:29:58.621Z,94400.20
2019-05-02T00:32:26.943Z,94400.93
2019-05-02T00:34:56.646Z,94400.00
2019-05-02T00:37:26.736Z,94402.52
2019-05-02T00:39:56.721Z,94404.50
2019-05-02T00:42:26.346Z,94393.92
2019-05-02T00:44:57.026Z,94412.83
2019-05-02T00:47:28.155Z,94408.63
2019-05-02T00:49:57.811Z,94423.69
2019-05-02T00:52:27.365Z,94411.74
2019-05-02T00:54:58.705Z,94409.32
2019-05-02T00:57:27.904Z,94416.24
2019-05-02T00:59:57.319Z,94418.52
2019-05-02T01:02:28.443Z,94419.97
2019-05-02T01:04:59.280Z,94410.41
2019-05-02T01:07:29.189Z,94417.23
2019-05-02T01:09:58.704Z,94415.39
2019-05-02T01:12:28.156Z,94409.80
2019-05-02T01:14:57.570Z,94417.23
2019-05-02T01:17:30.964Z,94414.25
2019-05-02T01:19:58.371Z,94414.64
2019-05-02T01:22:29.131Z,94410.50
2019-05-02T01:24:58.695Z,94399.64
2019-05-02T01:27:42.607Z,94399.80
2019-05-02T01:30:37.186Z,94406.23
2019-05-02T01:33:08.794Z,94405.05
2019-05-02T01:35:45.899Z,94407.32
2019-05-02T01:38:31.135Z,94398.12
2019-05-02T01:40:57.358Z,94401.39
2019-05-02T01:43:31.682Z,94400.30
2019-05-02T01:46:01.517Z,94407.66
2019-05-02T01:48:31.161Z,94411.44
2019-05-02T01:51:04.564Z,94403.35
2019-05-02T01:53:34.337Z,94406.37
2019-05-02T01:56:03.133Z,94413.23
2019-05-02T01:58:32.630Z,94402.53
2019-05-02T02:01:02.130Z,94401.55
2019-05-02T02:03:31.626Z,94405.25
2019-05-02T02:06:02.821Z,94401.59
2019-05-02T02:08:33.945Z,94403.53
2019-05-02T02:11:03.857Z,94400.30
2019-05-02T02:13:36.425Z,94408.97
2019-05-02T02:16:05.918Z,94411.56
2019-05-02T02:18:40.277Z,94401.69
2019-05-02T02:21:14.443Z,94406.19
2019-05-02T02:23:49.668Z,94409.70
2019-05-02T02:26:18.521Z,94405.16
2019-05-02T02:28:48.183Z,94409.37
2019-05-02T02:31:22.453Z,94410.77
2019-05-02T02:33:52.010Z,94405.16
2019-05-02T02:36:31.351Z,94411.39
2019-05-02T02:38:52.927Z,94420.09
2019-05-02T02:41:22.494Z,94422.59
2019-05-02T02:44:13.433Z,94412.22
2019-05-02T02:46:47.489Z,94406.92
2019-05-02T02:49:21.615Z,94417.52
2019-05-02T02:51:48.405Z,94410.30
2019-05-02T02:54:18.003Z,94406.64
2019-05-02T02:56:47.554Z,94412.09
2019-05-02T02:59:19.658Z,94406.64
2019-05-02T03:01:48.373Z,94414.52
2019-05-02T03:04:17.870Z,94411.48
2019-05-02T03:06:47.465Z,94416.39
2019-05-02T03:09:20.149Z,94421.75
2019-05-02T03:12:06.141Z,94416.20
2019-05-02T03:14:40.899Z,94417.98
2019-05-02T03:17:09.897Z,94421.00
2019-05-02T03:19:39.499Z,94412.05
2019-05-02T03:22:09.163Z,94416.98
2019-05-02T03:24:43.908Z,94421.70
2019-05-02T03:27:10.017Z,94423.50
2019-05-02T03:29:43.808Z,94429.73
2019-05-02T03:32:16.106Z,94431.95
2019-05-02T03:34:48.364Z,94438.55
2019-05-02T03:37:14.259Z,94435.09
2019-05-02T03:39:49.414Z,94441.27
2019-05-02T03:42:15.153Z,94441.33
2019-05-02T03:44:54.589Z,94436.31
2019-05-02T03:47:15.958Z,94444.70
2019-05-02T03:49:48.806Z,94455.00
2019-05-02T03:52:17.029Z,94445.92
2019-05-02T03:54:50.571Z,94450.69
2019-05-02T03:57:17.967Z,94452.13
2019-05-02T03:59:47.403Z,94460.34
2019-05-02T04:02:20.504Z,94458.70
2019-05-02T04:04:54.134Z,94454.25
2019-05-02T04:07:20.930Z,94455.53
2019-05-02T04:09:51.340Z,94462.08
2019-05-02T04:12:22.092Z,94468.41
2019-05-02T04:14:55.433Z,94459.25
2019-05-02T04:17:28.717Z,94459.19
2019-05-02T04:19:55.940Z,94468.48
2019-05-02T04:22:26.111Z,94462.97
2019-05-02T04:24:56.789Z,94462.80
2019-05-02T04:27:34.223Z,94472.31
2019-05-02T04:30:09.878Z,94466.30
2019-05-02T04:32:32.132Z,94464.57
2019-05-02T04:35:01.554Z,94478.41
2019-05-02T04:37:34.191Z,94474.10
2019-05-02T04:40:03.475Z,94476.73
2019-05-02T04:42:33.980Z,94473.81
2019-05-02T04:45:20.675Z,94483.84
2019-05-02T04:47:35.690Z,94487.84
2019-05-02T04:50:17.625Z,94482.24
2019-05-02T04:52:47.377Z,94491.97
2019-05-02T04:55:26.154Z,94478.34
2019-05-02T04:57:50.696Z,94482.14
2019-05-02T05:00:21.473Z,94487.28
2019-05-02T05:02:53.233Z,94478.83
2019-05-02T05:05:27.395Z,94494.23
2019-05-02T05:07:58.620Z,94489.08
2019-05-02T05:10:28.053Z,94485.15
2019-05-02T05:12:57.742Z,94486.62
2019-05-02T05:15:40.251Z,94481.88
2019-05-02T05:17:58.713Z,94484.79
2019-05-02T05:20:28.256Z,94488.95
2019-05-02T05:22:58.168Z,94492.11
2019-05-02T05:25:32.679Z,94485.18
2019-05-02T05:28:05.832Z,94488.64
2019-05-02T05:30:37.629Z,94492.95
2019-05-02T05:33:04.925Z,94483.23
2019-05-02T05:35:34.356Z,94483.91
2019-05-02T05:38:07.627Z,94484.30
2019-05-02T05:40:37.636Z,94470.02
2019-05-02T05:43:13.578Z,94477.69
2019-05-02T05:45:50.668Z,94479.27
2019-05-02T05:48:09.983Z,94475.45
2019-05-02T05:50:41.384Z,94485.14
2019-05-02T05:53:12.487Z,94488.72
2019-05-02T05:55:42.283Z,94493.80
2019-05-02T05:58:15.298Z,94490.16
2019-05-02T06:00:45.951Z,94487.89
2019-05-02T06:03:17.902Z,94484.86
2019-05-02T06:05:47.980Z,94481.87
2019-05-02T06:08:18.373Z,94478.97
2019-05-02T06:10:48.849Z,94485.50
2019-05-02T06:13:18.441Z,94475.91
2019-05-02T06:16:02.642Z,94476.97
2019-05-02T06:18:28.886Z,94486.38
2019-05-02T06:21:03.177Z,94479.19
2019-05-02T06:23:31.044Z,94484.58
2019-05-02T06:26:01.249Z,94488.10
2019-05-02T06:28:30.878Z,94479.58
2019-05-02T06:31:02.105Z,94467.45
2019-05-02T06:33:32.409Z,94464.16
2019-05-02T06:36:02.596Z,94457.23
2019-05-02T06:38:32.233Z,94447.77
2019-05-02T06:41:02.021Z,94455.57
2019-05-02T06:43:31.660Z,94474.80
2019-05-02T06:46:01.293Z,94467.28
2019-05-02T06:48:30.919Z,94451.36
2019-05-02T06:51:04.857Z,94458.45
2019-05-02T06:53:46.989Z,94465.42
2019-05-02T06:56:16.794Z,94466.70
2019-05-02T06:58:48.038Z,94468.89
2019-05-02T07:01:21.253Z,94462.48
2019-05-02T07:03:49.276Z,94475.95
2019-05-02T07:06:19.153Z,94471.45
2019-05-02T07:08:48.812Z,94463.27
2019-05-02T07:11:18.383Z,94461.97
2019-05-02T07:13:47.942Z,94459.51
2019-05-02T07:16:36.883Z,94472.97
2019-05-02T07:19:11.944Z,94463.74
2019-05-02T07:21:42.085Z,94470.95
2019-05-02T07:24:11.714Z,94468.30
2019-05-02T07:26:41.208Z,94467.55
2019-05-02T07:29:10.656Z,94466.77
2019-05-02T07:31:43.042Z,94472.83
2019-05-02T07:34:12.880Z,94458.36
2019-05-02T07:36:42.929Z,94467.50
2019-05-02T07:39:12.517Z,94458.31
2019-05-02T07:41:42.096Z,94433.95
2019-05-02T07:44:12.664Z,94483.93
2019-05-02T07:46:51.581Z,94473.60
2019-05-02T07:49:14.573Z,94470.55
2019-05-02T07:51:44.963Z,94466.84
2019-05-02T07:54:14.587Z,94477.81
2019-05-02T07:56:44.181Z,94461.08
2019-05-02T07:59:13.748Z,94440.16
2019-05-02T08:01:44.827Z,94463.09
2019-05-02T08:04:14.634Z,94474.33
2019-05-02T08:06:44.564Z,94457.43
2019-05-02T08:09:15.506Z,94463.46
2019-05-02T08:11:45.237Z,94460.97
2019-05-02T08:14:14.730Z,94465.36
2019-05-02T08:16:44.142Z,94468.14
2019-05-02T08:19:13.707Z,94476.22
2019-05-02T08:21:43.274Z,94469.92
2019-05-02T08:24:12.769Z,94483.67
2019-05-02T08:27:03.660Z,94471.36
2019-05-02T08:29:33.625Z,94473.34
2019-05-02T08:32:03.283Z,94459.63
2019-05-02T08:34:33.319Z,94450.76
2019-05-02T08:37:04.911Z,94446.34
2019-05-02T08:39:35.252Z,94451.52
2019-05-02T08:42:05.892Z,94445.33
2019-05-02T08:44:35.443Z,94454.69
2019-05-02T08:47:18.131Z,94450.05
2019-05-02T08:49:36.365Z,94455.30
2019-05-02T08:52:05.934Z,94449.67
2019-05-02T08:54:35.429Z,94446.81
2019-05-02T08:57:05.070Z,94441.86
2019-05-02T08:59:34.570Z,94443.41
2019-05-02T09:02:04.235Z,94452.76
2019-05-02T09:04:33.790Z,94429.03
2019-05-02T09:07:03.365Z,94441.78
2019-05-02T09:09:32.927Z,94446.83
2019-05-02T09:12:11.979Z,94438.47
2019-05-02T09:14:34.308Z,94444.25
2019-05-02T09:17:08.836Z,94442.30
2019-05-02T09:19:35.177Z,94429.32
2019-05-02T09:22:07.491Z,94433.58
2019-05-02T09:24:36.270Z,94424.46
2019-05-02T09:27:06.007Z,94432.16
2019-05-02T09:29:37.290Z,94423.94
2019-05-02T09:32:06.980Z,94428.61
2019-05-02T09:34:36.537Z,94422.22
2019-05-02T09:37:06.194Z,94414.49
2019-05-02T09:39:36.596Z,94411.42
2019-05-02T09:42:10.840Z,94403.86
2019-05-02T09:44:39.403Z,94401.52
2019-05-02T09:47:12.734Z,94401.02
2019-05-02T09:49:48.927Z,94410.15
2019-05-02T09:52:13.468Z,94414.83
2019-05-02T09:54:46.072Z,94407.27
2019-05-02T09:57:14.112Z,94404.66
2019-05-02T09:59:50.343Z,94406.20
2019-05-02T10:02:15.076Z,94392.65
2019-05-02T10:04:44.628Z,94395.53
2019-05-02T10:07:15.495Z,94393.42
2019-05-02T10:09:45.468Z,94401.16
2019-05-02T10:12:14.971Z,94406.47
2019-05-02T10:14:44.595Z,94385.34
2019-05-02T10:17:14.215Z,94385.34
2019-05-02T10:19:49.222Z,94373.55
2019-05-02T10:22:15.238Z,94366.77
2019-05-02T10:24:45.127Z,94365.70
2019-05-02T10:27:14.688Z,94363.34
2019-05-02T10:29:44.251Z,94363.09
2019-05-02T10:32:16.637Z,94367.53
2019-05-02T10:34:47.588Z,94359.88
2019-05-02T10:37:16.368Z,94354.17
2019-05-02T10:39:46.030Z,94358.76
2019-05-02T10:42:15.531Z,94331.92
2019-05-02T10:44:45.167Z,94345.26
2019-05-02T10:47:14.887Z,94340.52
2019-05-02T10:49:57.965Z,94327.38
2019-05-02T10:52:29.899Z,94331.36
2019-05-02T10:54:58.914Z,94326.62
2019-05-02T10:57:28.540Z,94318.33
2019-05-02T10:59:59.172Z,94315.34
2019-05-02T11:02:33.469Z,94328.23
2019-05-02T11:05:07.424Z,94317.73
2019-05-02T11:07:36.975Z,94330.91
2019-05-02T11:10:07.972Z,94306.00
2019-05-02T11:12:44.470Z,94314.44
2019-05-02T11:15:12.755Z,94312.11
2019-05-02T11:17:43.971Z,94319.44
2019-05-02T11:20:13.882Z,94324.77
2019-05-02T11:22:43.619Z,94326.62
2019-05-02T11:25:13.385Z,94315.98
2019-05-02T11:27:48.661Z,94316.33
2019-05-02T11:30:22.279Z,94297.20
2019-05-02T11:32:51.629Z,94314.37
2019-05-02T11:35:22.402Z,94296.30
2019-05-02T11:37:52.063Z,94303.48
2019-05-02T11:40:22.745Z,94298.50
2019-05-02T11:42:52.702Z,94295.88
2019-05-02T11:45:22.744Z,94307.72
2019-05-02T11:47:55.800Z,94287.38
2019-05-02T11:50:26.725Z,94310.80
2019-05-02T11:52:54.996Z,94312.35
2019-05-02T11:55:28.872Z,94324.66
2019-05-02T11:57:55.702Z,94318.98
2019-05-02T12:00:25.380Z,94306.13
2019-05-02T12:03:12.753Z,94308.70
2019-05-02T12:05:44.258Z,94296.67
2019-05-02T12:08:13.866Z,94290.23
2019-05-02T12:11:03.386Z,94285.70
2019-05-02T12:13:23.588Z,94288.49
2019-05-02T12:15:53.152Z,94293.43
2019-05-02T12:18:23.362Z,94282.87
2019-05-02T12:20:53.491Z,94282.68
2019-05-02T12:23:23.110Z,94274.50
2019-05-02T12:25:52.658Z,94284.66
2019-05-02T12:28:23.009Z,94282.34
2019-05-02T12:30:52.765Z,94276.58
2019-05-02T12:33:23.941Z,94287.00
2019-05-02T12:35:53.501Z,94304.96
2019-05-02T12:38:23.293Z,94290.62
2019-05-02T12:40:57.734Z,94303.73
2019-05-02T12:43:28.798Z,94293.89
2019-05-02T12:46:02.090Z,94303.88
2019-05-02T12:48:32.785Z,94313.88
2019-05-02T12:51:02.900Z,94317.25
2019-05-02T12:53:32.706Z,94322.75
2019-05-02T12:56:02.357Z,94321.98
2019-05-02T12:58:32.635Z,94320.93
2019-05-02T13:01:02.912Z,94313.85
2019-05-02T13:03:43.725Z,94312.53
2019-05-02T13:06:13.469Z,94301.63
2019-05-02T13:08:48.901Z,94299.25
2019-05-02T13:11:36.991Z,94309.30
2019-05-02T13:14:31.787Z,94298.67
2019-05-02T13:17:01.460Z,94320.67
2019-05-02T13:19:38.098Z,94311.02
2019-05-02T13:22:03.401Z,94315.70
2019-05-02T13:24:42.343Z,94297.11
2019-05-02T13:27:17.161Z,94305.98
2019-05-02T13:29:49.061Z,94289.55
2019-05-02T13:32:21.743Z,94302.89
2019-05-02T13:35:08.812Z,94295.88
2019-05-02T13:37:42.420Z,94299.00
2019-05-02T13:40:37.747Z,94301.09
2019-05-02T13:43:13.212Z,94292.20
2019-05-02T13:45:52.667Z,94290.13
2019-05-02T13:56:57.130Z,94267.92
2019-05-02T13:59:26.525Z,94278.33
2019-05-02T14:11:24.956Z,94268.09
2019-05-02T14:13:12.453Z,94261.03
2019-05-02T14:15:42.118Z,94257.84
2019-05-02T14:18:12.519Z,94255.18
2019-05-02T14:20:42.844Z,94259.30
2019-05-02T14:23:12.761Z,94256.41
2019-05-02T14:25:42.676Z,94251.64
2019-05-02T14:28:12.933Z,94257.69
2019-05-02T14:30:46.045Z,94259.58
2019-05-02T14:33:15.553Z,94260.11
2019-05-02T14:35:45.170Z,94264.88
2019-05-02T14:38:15.461Z,94265.13
2019-05-02T14:40:48.293Z,94266.41
2019-05-02T14:43:38.132Z,94275.80
2019-05-02T14:46:06.897Z,94272.42
2019-05-02T14:48:41.725Z,94266.63
2019-05-02T14:51:11.848Z,94265.27
2019-05-02T14:53:43.013Z,94262.71
2019-05-02T14:56:26.338Z,94265.27
2019-05-02T14:58:55.895Z,94268.38
2019-05-02T15:01:26.259Z,94278.39
2019-05-02T15:03:58.297Z,94273.66
2019-05-02T15:06:27.349Z,94283.13
2019-05-02T15:08:56.949Z,94282.07
2019-05-02T15:11:30.940Z,94281.53
2019-05-02T15:13:57.677Z,94293.24
2019-05-02T15:16:39.522Z,94291.69
2019-05-02T15:18:58.388Z,94284.94
2019-05-02T15:21:29.779Z,94287.80
2019-05-02T15:23:59.380Z,94296.91
2019-05-02T15:26:31.285Z,94296.39
2019-05-02T15:29:01.795Z,94294.59
2019-05-02T15:31:34.350Z,94295.88
2019-05-02T15:34:08.353Z,94295.61
2019-05-02T15:36:44.078Z,94294.30
2019-05-02T15:41:44.913Z,94292.50
2019-05-02T15:44:13.381Z,94294.59
2019-05-02T15:46:43.050Z,94299.53
2019-05-02T15:49:12.532Z,94300.30
2019-05-02T15:51:45.034Z,94292.77
2019-05-02T15:54:13.440Z,94284.66
2019-05-02T15:57:00.447Z,94296.14
2019-05-02T15:59:43.976Z,94298.50
2019-05-02T16:02:08.382Z,94295.85
2019-05-02T16:04:41.971Z,94289.89
2019-05-02T16:07:12.687Z,94293.28
2019-05-02T16:09:42.320Z,94301.08
2019-05-02T16:12:12.345Z,94301.30
2019-05-02T16:14:43.343Z,94297.67
2019-05-02T16:17:17.633Z,94303.41
2019-05-02T16:19:45.864Z,94305.45
2019-05-02T16:22:17.171Z,94299.20
2019-05-02T16:24:49.009Z,94295.50
2019-05-02T16:27:21.930Z,94304.64
2019-05-02T16:29:50.544Z,94308.22
2019-05-02T16:32:22.100Z,94308.61
2019-05-02T16:35:12.285Z,94316.19
2019-05-02T16:37:36.658Z,94317.69
2019-05-02T16:43:09.885Z,94333.49
2019-05-02T16:45:41.671Z,94339.18
2019-05-02T16:48:12.477Z,94338.27
2019-05-02T16:50:44.821Z,94348.16
2019-05-02T16:53:17.151Z,94348.13
2019-05-02T16:55:45.226Z,94339.94
2019-05-02T16:58:14.652Z,94346.60
2019-05-02T17:00:45.521Z,94310.89
2019-05-02T17:03:17.423Z,94364.03
2019-05-02T17:05:49.448Z,94362.14
2019-05-02T17:08:20.673Z,94360.51
2019-05-02T17:10:56.737Z,94376.45
2019-05-02T17:13:27.411Z,94372.28
2019-05-02T17:15:55.373Z,94376.52
2019-05-02T17:18:25.081Z,94379.62
2019-05-02T17:20:56.848Z,94382.73
2019-05-02T17:23:25.803Z,94391.81
2019-05-02T17:25:55.218Z,94392.70
2019-05-02T17:28:24.777Z,94397.36
2019-05-02T17:30:54.328Z,94392.91
2019-05-02T17:33:23.900Z,94399.37
2019-05-02T17:35:54.379Z,94400.99
2019-05-02T17:38:29.008Z,94403.08
2019-05-02T17:41:04.905Z,94393.59
2019-05-02T17:43:32.896Z,94399.02
2019-05-02T17:46:04.280Z,94390.28
2019-05-02T17:48:36.679Z,94409.36
2019-05-02T17:51:17.727Z,94406.59
2019-05-02T17:53:49.734Z,94408.40
2019-05-02T17:56:20.598Z,94417.95
2019-05-02T17:58:54.213Z,94415.75
2019-05-02T18:01:26.330Z,94413.99
2019-05-02T18:03:55.710Z,94422.54
2019-05-02T18:06:32.976Z,94427.31
2019-05-02T18:08:56.573Z,94415.57
2019-05-02T18:11:29.603Z,94413.16
2019-05-02T18:13:57.615Z,94431.27
2019-05-02T18:16:27.278Z,94425.27
2019-05-02T18:18:56.932Z,94427.03
2019-05-02T18:21:28.702Z,94436.20
2019-05-02T18:24:02.453Z,94433.76
2019-05-02T18:26:31.726Z,94440.03
2019-05-02T18:29:02.783Z,94445.50
2019-05-02T18:31:34.802Z,94447.03
2019-05-02T18:34:03.816Z,94449.11
2019-05-02T18:36:37.134Z,94456.14
2019-05-02T18:39:08.896Z,94459.51
2019-05-02T18:41:44.761Z,94471.25
2019-05-02T18:44:11.869Z,94461.20
2019-05-02T18:46:42.882Z,94471.22
2019-05-02T18:49:17.010Z,94474.41
2019-05-02T18:51:48.287Z,94475.45
2019-05-02T18:54:15.358Z,94477.33
2019-05-02T18:56:50.261Z,94488.77
2019-05-02T18:59:19.906Z,94484.88
2019-05-02T19:01:52.703Z,94489.43
2019-05-02T19:04:22.123Z,94499.04
2019-05-02T19:06:52.487Z,94504.03
2019-05-02T19:09:26.434Z,94511.30
2019-05-02T19:12:04.806Z,94512.52
2019-05-02T19:14:26.631Z,94506.48
2019-05-02T19:16:58.129Z,94512.56
2019-05-02T19:19:32.315Z,94517.98
2019-05-02T19:21:58.623Z,94512.06
2019-05-02T19:24:32.908Z,94515.44
2019-05-02T19:26:59.690Z,94516.89
2019-05-02T19:29:31.779Z,94515.31
2019-05-02T19:32:01.307Z,94525.02
2019-05-02T19:34:32.383Z,94526.02
2019-05-02T19:37:02.859Z,94524.41
2019-05-02T19:39:34.013Z,94520.56
2019-05-02T19:42:03.657Z,94525.20
2019-05-02T19:44:34.135Z,94527.72
2019-05-02T19:47:08.252Z,94539.63
2019-05-02T19:49:35.448Z,94532.73
2019-05-02T19:52:05.407Z,94530.16
2019-05-02T19:54:39.319Z,94542.47
2019-05-02T19:57:07.471Z,94535.08
2019-05-02T19:59:36.979Z,94535.19
2019-05-02T20:02:06.625Z,94527.96
2019-05-02T20:04:37.592Z,94535.77
2019-05-02T20:07:07.824Z,94541.91
2019-05-02T20:09:38.151Z,94544.24
2019-05-02T20:12:11.651Z,94541.72
2019-05-02T20:14:47.342Z,94549.53
2019-05-02T20:17:20.021Z,94549.25
2019-05-02T20:19:57.671Z,94551.72
2019-05-02T20:22:27.293Z,94547.43
2019-05-02T20:25:00.381Z,94545.03
2019-05-02T20:27:28.862Z,94548.34
2019-05-02T20:30:00.297Z,94546.92
2019-05-02T20:32:32.262Z,94552.97
2019-05-02T20:35:02.268Z,94540.87
2019-05-02T20:37:32.537Z,94539.62
2019-05-02T20:40:03.556Z,94541.83
2019-05-02T20:42:33.198Z,94541.71
2019-05-02T20:45:02.872Z,94540.19
2019-05-02T20:47:33.077Z,94542.09
2019-05-02T20:50:04.426Z,94544.39
2019-05-02T20:52:35.667Z,94537.93
2019-05-02T20:55:06.805Z,94545.78
2019-05-02T20:57:36.409Z,94540.23
2019-05-02T21:00:09.108Z,94543.98
2019-05-02T21:02:40.137Z,94540.63
2019-05-02T21:05:11.849Z,94535.36
2019-05-02T21:07:43.249Z,94547.67
2019-05-02T21:10:14.685Z,94533.73
2019-05-02T21:12:44.315Z,94537.99
2019-05-02T21:15:13.985Z,94530.70
2019-05-02T21:17:43.729Z,94538.45
2019-05-02T21:20:13.367Z,94538.28
2019-05-02T21:22:42.853Z,94539.09
2019-05-02T21:25:13.849Z,94540.27
2019-05-02T21:27:44.913Z,94546.39
2019-05-02T21:30:17.044Z,94544.65
2019-05-02T21:32:46.692Z,94552.41
2019-05-02T21:35:16.206Z,94547.95
2019-05-02T21:37:45.735Z,94557.45
2019-05-02T21:40:15.498Z,94555.52
2019-05-02T21:42:44.995Z,94550.98
2019-05-02T21:45:15.127Z,94553.75
2019-05-02T21:47:44.680Z,94559.28
2019-05-02T21:50:25.025Z,94566.67
2019-05-02T21:52:56.228Z,94557.19
2019-05-02T21:55:27.687Z,94564.72
2019-05-02T21:57:57.514Z,94563.45
2019-05-02T22:00:45.897Z,94563.81
2019-05-02T22:03:16.196Z,94568.78
2019-05-02T22:05:47.221Z,94566.23
2019-05-02T22:08:16.884Z,94571.20
2019-05-02T22:10:46.540Z,94566.50
2019-05-02T22:13:16.023Z,94572.21
2019-05-02T22:15:45.584Z,94564.72
2019-05-02T22:18:15.214Z,94571.90
2019-05-02T22:20:44.703Z,94572.11
2019-05-02T22:23:14.123Z,94572.78
2019-05-02T22:25:43.626Z,94573.24
2019-05-02T22:28:14.109Z,94577.25
2019-05-02T22:30:43.682Z,94575.13
2019-05-02T22:33:13.306Z,94574.66
2019-05-02T22:35:43.372Z,94567.58
2019-05-02T22:38:14.701Z,94572.59
2019-05-02T22:40:45.755Z,94568.80
2019-05-02T22:43:15.213Z,94560.83
2019-05-02T22:45:44.783Z,94567.63
2019-05-02T22:48:14.367Z,94566.84
2019-05-02T22:50:43.859Z,94569.42
2019-05-02T22:53:14.017Z,94570.46
2019-05-02T22:55:43.811Z,94577.80
2019-05-02T22:58:14.644Z,94570.53
2019-05-02T23:00:44.173Z,94574.11
2019-05-02T23:03:13.728Z,94576.12
2019-05-02T23:05:43.220Z,94572.88
2019-05-02T23:08:12.915Z,94577.83
2019-05-02T23:10:43.435Z,94572.24
2019-05-02T23:13:13.054Z,94564.49
2019-05-02T23:15:42.762Z,94569.25
2019-05-02T23:18:15.026Z,94567.75
2019-05-02T23:20:44.523Z,94577.58
2019-05-02T23:23:14.011Z,94565.75
2019-05-02T23:25:57.100Z,94562.64
2019-05-02T23:28:28.252Z,94565.06
2019-05-02T23:30:57.809Z,94563.72
2019-05-02T23:33:28.945Z,94566.23
2019-05-02T23:35:58.444Z,94564.23
2019-05-02T23:38:28.167Z,94561.95
2019-05-02T23:40:59.254Z,94559.28
2019-05-02T23:43:28.752Z,94559.80
2019-05-02T23:45:58.243Z,94564.75
2019-05-02T23:48:27.728Z,94576.02
2019-05-02T23:50:57.221Z,94579.61
2019-05-02T23:53:26.718Z,94592.93
2019-05-02T23:55:56.307Z,94595.47
2019-05-02T23:58:25.825Z,94596.98
